Baltimore, Maryland
Traffic Map
Current Weather Conditions
Baltimore, Maryland
Overcast Moderate Rain
Overcast
41°
Feels Like: 38°
Wind Chill: 38° Ceiling: 3200
Heat Index: 41° Visibility: 4mi
Dew Point: 39° Wind: 5mph
Humidity: 93% Direction: 270° (W)
Pressure: 29.75in Gusts: 0mph
Raw Report DataKBWI 260254Z 27004KT 4SM RA BR FEW018 OVC032 05/04 A2975 RMK AO2 SLP076 P0006 60012 T00500039 53001
Traffic Incident Summary
Active as of:
Severity:
Category:
InformationThere was an issue retrieving the traffic information for this location. Please try a different location or try again shortly.
Advertisements
Track Severe Weather on mobile